sensor_id;sensor_type;location;lat;lon;timestamp;pressure;altitude;pressure_sealevel;temperature;humidity
51287;BME280;37364;46.974;18.916;2023-07-02T00:00:10;155452.25;;;20.21;100.00
51287;BME280;37364;46.974;18.916;2023-07-02T00:02:41;155447.03;;;20.19;100.00
51287;BME280;37364;46.974;18.916;2023-07-02T00:05:11;155431.41;;;20.12;100.00
51287;BME280;37364;46.974;18.916;2023-07-02T00:07:41;155430.13;;;20.12;100.00
51287;BME280;37364;46.974;18.916;2023-07-02T00:10:14;155410.56;;;20.04;100.00
51287;BME280;37364;46.974;18.916;2023-07-02T00:12:45;155449.66;;;20.20;100.00
51287;BME280;37364;46.974;18.916;2023-07-02T00:15:17;155436.63;;;20.14;100.00
51287;BME280;37364;46.974;18.916;2023-07-02T00:17:50;155428.84;;;20.11;100.00
51287;BME280;37364;46.974;18.916;2023-07-02T00:20:21;155441.81;;;20.17;100.00
51287;BME280;37364;46.974;18.916;2023-07-02T00:22:53;155426.19;;;20.10;100.00
51287;BME280;37364;46.974;18.916;2023-07-02T00:25:25;155434.03;;;20.13;100.00
51287;BME280;37364;46.974;18.916;2023-07-02T00:27:57;155415.78;;;20.06;100.00
51287;BME280;37364;46.974;18.916;2023-07-02T00:30:30;155418.41;;;20.07;100.00
51287;BME280;37364;46.974;18.916;2023-07-02T00:33:01;155408.00;;;20.03;100.00
51287;BME280;37364;46.974;18.916;2023-07-02T00:35:31;155400.16;;;20.00;100.00
51287;BME280;37364;46.974;18.916;2023-07-02T00:38:01;155384.53;;;19.94;100.00
51287;BME280;37364;46.974;18.916;2023-07-02T00:40:34;155380.63;;;19.92;100.00
51287;BME280;37364;46.974;18.916;2023-07-02T00:43:04;155392.31;;;19.97;100.00
51287;BME280;37364;46.974;18.916;2023-07-02T00:45:39;155366.28;;;19.87;100.00
51287;BME280;37364;46.974;18.916;2023-07-02T00:48:10;155306.31;;;19.63;100.00
51287;BME280;37364;46.974;18.916;2023-07-02T00:50:40;155310.22;;;19.65;100.00
51287;BME280;37364;46.974;18.916;2023-07-02T00:53:11;155306.31;;;19.63;100.00
51287;BME280;37364;46.974;18.916;2023-07-02T00:55:43;155295.91;;;19.59;100.00
51287;BME280;37364;46.974;18.916;2023-07-02T00:58:14;155284.19;;;19.54;100.00
51287;BME280;37364;46.974;18.916;2023-07-02T01:00:44;155318.00;;;19.68;100.00
51287;BME280;37364;46.974;18.916;2023-07-02T01:03:15;155310.22;;;19.65;100.00
51287;BME280;37364;46.974;18.916;2023-07-02T01:05:46;155306.31;;;19.63;100.00
51287;BME280;37364;46.974;18.916;2023-07-02T01:08:16;155290.69;;;19.57;100.00
51287;BME280;37364;46.974;18.916;2023-07-02T01:10:49;155293.25;;;19.58;100.00
51287;BME280;37364;46.974;18.916;2023-07-02T01:13:21;155293.25;;;19.58;100.00
51287;BME280;37364;46.974;18.916;2023-07-02T01:15:54;155301.09;;;19.61;100.00
51287;BME280;37364;46.974;18.916;2023-07-02T01:18:26;155298.53;;;19.60;100.00
51287;BME280;37364;46.974;18.916;2023-07-02T01:21:00;155302.38;;;19.62;100.00
51287;BME280;37364;46.974;18.916;2023-07-02T01:23:33;155285.47;;;19.55;100.00
51287;BME280;37364;46.974;18.916;2023-07-02T01:26:04;155276.34;;;19.51;100.00
51287;BME280;37364;46.974;18.916;2023-07-02T01:28:35;155284.19;;;19.54;100.00
51287;BME280;37364;46.974;18.916;2023-07-02T01:31:06;155294.59;;;19.59;100.00
51287;BME280;37364;46.974;18.916;2023-07-02T01:33:36;155297.19;;;19.60;100.00
51287;BME280;37364;46.974;18.916;2023-07-02T01:36:09;155281.56;;;19.53;100.00
51287;BME280;37364;46.974;18.916;2023-07-02T01:38:39;155288.06;;;19.56;100.00
51287;BME280;37364;46.974;18.916;2023-07-02T01:41:11;155260.72;;;19.45;100.00
51287;BME280;37364;46.974;18.916;2023-07-02T01:43:42;155269.84;;;19.49;100.00
51287;BME280;37364;46.974;18.916;2023-07-02T01:46:12;155250.31;;;19.41;100.00
51287;BME280;37364;46.974;18.916;2023-07-02T01:48:42;155236.00;;;19.35;100.00
51287;BME280;37364;46.974;18.916;2023-07-02T01:51:15;155241.19;;;19.38;100.00
51287;BME280;37364;46.974;18.916;2023-07-02T01:53:45;155224.28;;;19.31;100.00
51287;BME280;37364;46.974;18.916;2023-07-02T01:56:15;155216.44;;;19.28;100.00
51287;BME280;37364;46.974;18.916;2023-07-02T01:58:46;155203.41;;;19.23;100.00
51287;BME280;37364;46.974;18.916;2023-07-02T02:01:16;155176.09;;;19.12;100.00
51287;BME280;37364;46.974;18.916;2023-07-02T02:03:46;155186.50;;;19.16;100.00
51287;BME280;37364;46.974;18.916;2023-07-02T02:06:19;155172.16;;;19.10;100.00
51287;BME280;37364;46.974;18.916;2023-07-02T02:08:50;155177.38;;;19.12;100.00
51287;BME280;37364;46.974;18.916;2023-07-02T02:11:21;155182.59;;;19.14;100.00
51287;BME280;37364;46.974;18.916;2023-07-02T02:13:54;155169.59;;;19.09;100.00
51287;BME280;37364;46.974;18.916;2023-07-02T02:16:24;155134.44;;;18.95;100.00
51287;BME280;37364;46.974;18.916;2023-07-02T02:18:55;155118.78;;;18.89;100.00
51287;BME280;37364;46.974;18.916;2023-07-02T02:21:28;155135.72;;;18.96;100.00
51287;BME280;37364;46.974;18.916;2023-07-02T02:23:59;155118.78;;;18.89;100.00
51287;BME280;37364;46.974;18.916;2023-07-02T02:26:29;155134.44;;;18.95;100.00
51287;BME280;37364;46.974;18.916;2023-07-02T02:28:59;155150.06;;;19.02;100.00
51287;BME280;37364;46.974;18.916;2023-07-02T02:31:29;155143.50;;;18.99;100.00
51287;BME280;37364;46.974;18.916;2023-07-02T02:34:01;155159.19;;;19.05;100.00
51287;BME280;37364;46.974;18.916;2023-07-02T02:36:34;155157.84;;;19.05;100.00
51287;BME280;37364;46.974;18.916;2023-07-02T02:39:05;155170.88;;;19.10;100.00
51287;BME280;37364;46.974;18.916;2023-07-02T02:41:35;155169.59;;;19.09;100.00
51287;BME280;37364;46.974;18.916;2023-07-02T02:44:05;155170.88;;;19.10;100.00
51287;BME280;37364;46.974;18.916;2023-07-02T02:46:35;155173.47;;;19.11;100.00
51287;BME280;37364;46.974;18.916;2023-07-02T02:49:07;155196.91;;;19.20;100.00
51287;BME280;37364;46.974;18.916;2023-07-02T02:51:39;155215.16;;;19.27;100.00
51287;BME280;37364;46.974;18.916;2023-07-02T02:54:10;155204.75;;;19.23;100.00
51287;BME280;37364;46.974;18.916;2023-07-02T02:56:40;155211.25;;;19.26;100.00
51287;BME280;37364;46.974;18.916;2023-07-02T02:59:11;155219.06;;;19.29;100.00
51287;BME280;37364;46.974;18.916;2023-07-02T03:01:42;155204.75;;;19.23;100.00
51287;BME280;37364;46.974;18.916;2023-07-02T03:04:12;155215.16;;;19.27;100.00
51287;BME280;37364;46.974;18.916;2023-07-02T03:06:45;155164.38;;;19.07;100.00
51287;BME280;37364;46.974;18.916;2023-07-02T03:09:15;155199.53;;;19.21;100.00
51287;BME280;37364;46.974;18.916;2023-07-02T03:11:46;155195.63;;;19.20;100.00
51287;BME280;37364;46.974;18.916;2023-07-02T03:14:16;155181.28;;;19.14;100.00
51287;BME280;37364;46.974;18.916;2023-07-02T03:16:47;155190.41;;;19.17;100.00
51287;BME280;37364;46.974;18.916;2023-07-02T03:19:18;155191.72;;;19.18;100.00
51287;BME280;37364;46.974;18.916;2023-07-02T03:21:51;155169.59;;;19.09;100.00
51287;BME280;37364;46.974;18.916;2023-07-02T03:24:21;155170.88;;;19.10;100.00
51287;BME280;37364;46.974;18.916;2023-07-02T03:26:51;155183.88;;;19.15;100.00
51287;BME280;37364;46.974;18.916;2023-07-02T03:29:22;155172.16;;;19.10;100.00
51287;BME280;37364;46.974;18.916;2023-07-02T03:31:52;155186.50;;;19.16;100.00
51287;BME280;37364;46.974;18.916;2023-07-02T03:34:22;155189.13;;;19.17;100.00
51287;BME280;37364;46.974;18.916;2023-07-02T03:36:55;155183.88;;;19.15;100.00
51287;BME280;37364;46.974;18.916;2023-07-02T03:39:25;155176.09;;;19.12;100.00
51287;BME280;37364;46.974;18.916;2023-07-02T03:41:55;155173.47;;;19.11;100.00
51287;BME280;37364;46.974;18.916;2023-07-02T03:44:25;155182.59;;;19.14;100.00
51287;BME280;37364;46.974;18.916;2023-07-02T03:46:56;155177.38;;;19.12;100.00
51287;BME280;37364;46.974;18.916;2023-07-02T03:49:26;155204.75;;;19.23;100.00
51287;BME280;37364;46.974;18.916;2023-07-02T03:51:59;155189.13;;;19.17;100.00
51287;BME280;37364;46.974;18.916;2023-07-02T03:54:29;155182.59;;;19.14;100.00
51287;BME280;37364;46.974;18.916;2023-07-02T03:56:59;155186.50;;;19.16;100.00
51287;BME280;37364;46.974;18.916;2023-07-02T03:59:29;155185.22;;;19.15;100.00
51287;BME280;37364;46.974;18.916;2023-07-02T04:02:00;155169.59;;;19.09;100.00
51287;BME280;37364;46.974;18.916;2023-07-02T04:04:30;155169.59;;;19.09;100.00
51287;BME280;37364;46.974;18.916;2023-07-02T04:07:03;155186.50;;;19.16;100.00
51287;BME280;37364;46.974;18.916;2023-07-02T04:09:34;155207.31;;;19.24;100.00
51287;BME280;37364;46.974;18.916;2023-07-02T04:12:05;155212.53;;;19.26;100.00
51287;BME280;37364;46.974;18.916;2023-07-02T04:14:35;155194.34;;;19.19;100.00
51287;BME280;37364;46.974;18.916;2023-07-02T04:17:06;155207.31;;;19.24;100.00
51287;BME280;37364;46.974;18.916;2023-07-02T04:19:36;155220.38;;;19.29;100.00
51287;BME280;37364;46.974;18.916;2023-07-02T04:22:09;155199.53;;;19.21;100.00
51287;BME280;37364;46.974;18.916;2023-07-02T04:24:39;155206.03;;;19.24;100.00
51287;BME280;37364;46.974;18.916;2023-07-02T04:27:13;155202.13;;;19.22;100.00
51287;BME280;37364;46.974;18.916;2023-07-02T04:30:06;155200.84;;;19.22;100.00
51287;BME280;37364;46.974;18.916;2023-07-02T04:32:37;155198.19;;;19.21;100.00
51287;BME280;37364;46.974;18.916;2023-07-02T04:35:09;155193.00;;;19.19;100.00
51287;BME280;37364;46.974;18.916;2023-07-02T04:37:42;155195.63;;;19.20;100.00
51287;BME280;37364;46.974;18.916;2023-07-02T04:40:12;155191.72;;;19.18;100.00
51287;BME280;37364;46.974;18.916;2023-07-02T04:42:44;155173.47;;;19.11;100.00
51287;BME280;37364;46.974;18.916;2023-07-02T04:45:17;155194.34;;;19.19;100.00
51287;BME280;37364;46.974;18.916;2023-07-02T04:47:47;155220.38;;;19.29;100.00
51287;BME280;37364;46.974;18.916;2023-07-02T04:50:17;155185.22;;;19.15;100.00
51287;BME280;37364;46.974;18.916;2023-07-02T04:52:50;155221.66;;;19.30;100.00
51287;BME280;37364;46.974;18.916;2023-07-02T04:55:22;155251.59;;;19.42;100.00
51287;BME280;37364;46.974;18.916;2023-07-02T04:57:52;155262.03;;;19.46;100.00
51287;BME280;37364;46.974;18.916;2023-07-02T05:00:22;155285.47;;;19.55;100.00
51287;BME280;37364;46.974;18.916;2023-07-02T05:02:52;155286.75;;;19.55;100.00
51287;BME280;37364;46.974;18.916;2023-07-02T05:05:23;155319.34;;;19.68;100.00
51287;BME280;37364;46.974;18.916;2023-07-02T05:07:56;155318.00;;;19.68;100.00
51287;BME280;37364;46.974;18.916;2023-07-02T05:10:26;155337.59;;;19.75;100.00
51287;BME280;37364;46.974;18.916;2023-07-02T05:12:56;155359.78;;;19.84;100.00
51287;BME280;37364;46.974;18.916;2023-07-02T05:15:26;155409.28;;;20.04;100.00
51287;BME280;37364;46.974;18.916;2023-07-02T05:17:57;155510.91;;;20.44;100.00
51287;BME280;37364;46.974;18.916;2023-07-02T05:20:27;155608.72;;;20.82;100.00
51287;BME280;37364;46.974;18.916;2023-07-02T05:23:00;155690.81;;;21.14;100.00
51287;BME280;37364;46.974;18.916;2023-07-02T05:25:30;155719.50;;;21.26;100.00
51287;BME280;37364;46.974;18.916;2023-07-02T05:28:00;155667.38;;;21.05;100.00
51287;BME280;37364;46.974;18.916;2023-07-02T05:30:31;155642.63;;;20.96;100.00
51287;BME280;37364;46.974;18.916;2023-07-02T05:33:01;155660.84;;;21.03;100.00
51287;BME280;37364;46.974;18.916;2023-07-02T05:35:31;155639.97;;;20.94;100.00
51287;BME280;37364;46.974;18.916;2023-07-02T05:38:04;155656.97;;;21.01;100.00
51287;BME280;37364;46.974;18.916;2023-07-02T05:40:34;155671.25;;;21.07;100.00
51287;BME280;37364;46.974;18.916;2023-07-02T05:43:04;155694.75;;;21.16;100.00
51287;BME280;37364;46.974;18.916;2023-07-02T05:45:35;155728.66;;;21.29;100.00
51287;BME280;37364;46.974;18.916;2023-07-02T05:48:05;155765.19;;;21.44;100.00
51287;BME280;37364;46.974;18.916;2023-07-02T05:50:36;155806.94;;;21.60;100.00
51287;BME280;37364;46.974;18.916;2023-07-02T05:53:08;155840.81;;;21.73;100.00
51287;BME280;37364;46.974;18.916;2023-07-02T05:55:39;155890.38;;;21.93;100.00
51287;BME280;37364;46.974;18.916;2023-07-02T05:58:09;155933.44;;;22.10;100.00
51287;BME280;37364;46.974;18.916;2023-07-02T06:00:39;155912.56;;;22.02;100.00
51287;BME280;37364;46.974;18.916;2023-07-02T06:03:17;155963.44;;;22.22;100.00
51287;BME280;37364;46.974;18.916;2023-07-02T06:05:49;155930.81;;;22.09;100.00
51287;BME280;37364;46.974;18.916;2023-07-02T06:08:22;155937.38;;;22.11;100.00
51287;BME280;37364;46.974;18.916;2023-07-02T06:10:53;155904.72;;;21.99;100.00
51287;BME280;37364;46.974;18.916;2023-07-02T06:13:23;155859.09;;;21.81;100.00
51287;BME280;37364;46.974;18.916;2023-07-02T06:15:53;155916.50;;;22.03;100.00
51287;BME280;37364;46.974;18.916;2023-07-02T06:18:24;155909.94;;;22.01;100.00
51287;BME280;37364;46.974;18.916;2023-07-02T06:20:54;155928.22;;;22.08;100.00
51287;BME280;37364;46.974;18.916;2023-07-02T06:23:27;155977.84;;;22.27;100.00
51287;BME280;37364;46.974;18.916;2023-07-02T06:25:57;155994.78;;;22.34;100.00
51287;BME280;37364;46.974;18.916;2023-07-02T06:28:30;155983.06;;;22.29;100.00
51287;BME280;37364;46.974;18.916;2023-07-02T06:31:01;155989.56;;;22.32;100.00
51287;BME280;37364;46.974;18.916;2023-07-02T06:33:31;156036.56;;;22.50;100.00
51287;BME280;37364;46.974;18.916;2023-07-02T06:36:01;156121.38;;;22.84;100.00
51287;BME280;37364;46.974;18.916;2023-07-02T06:38:34;156191.91;;;23.12;100.00
51287;BME280;37364;46.974;18.916;2023-07-02T06:41:04;156330.28;;;23.66;100.00
51287;BME280;37364;46.974;18.916;2023-07-02T06:43:35;156476.56;;;24.23;100.00
51287;BME280;37364;46.974;18.916;2023-07-02T06:46:09;156263.69;;;23.40;100.00
51287;BME280;37364;46.974;18.916;2023-07-02T06:48:40;156193.19;;;23.12;100.00
51287;BME280;37364;46.974;18.916;2023-07-02T06:51:10;156093.94;;;22.73;100.00
51287;BME280;37364;46.974;18.916;2023-07-02T06:53:45;156108.31;;;22.79;100.00
51287;BME280;37364;46.974;18.916;2023-07-02T06:56:15;156105.72;;;22.78;100.00
51287;BME280;37364;46.974;18.916;2023-07-02T06:58:45;156087.44;;;22.70;100.00
51287;BME280;37364;46.974;18.916;2023-07-02T07:01:15;156160.53;;;22.99;100.00
51287;BME280;37364;46.974;18.916;2023-07-02T07:03:45;156167.06;;;23.02;100.00
51287;BME280;37364;46.974;18.916;2023-07-02T07:06:15;156182.75;;;23.08;100.00
51287;BME280;37364;46.974;18.916;2023-07-02T07:08:48;156163.13;;;23.00;100.00
51287;BME280;37364;46.974;18.916;2023-07-02T07:11:18;156263.69;;;23.40;100.00
51287;BME280;37364;46.974;18.916;2023-07-02T07:13:49;156181.47;;;23.07;100.00
51287;BME280;37364;46.974;18.916;2023-07-02T07:16:19;156207.56;;;23.18;100.00
51287;BME280;37364;46.974;18.916;2023-07-02T07:18:49;156261.09;;;23.39;100.00
51287;BME280;37364;46.974;18.916;2023-07-02T07:21:19;156270.25;;;23.42;100.00
51287;BME280;37364;46.974;18.916;2023-07-02T07:23:52;156309.38;;;23.58;100.00
51287;BME280;37364;46.974;18.916;2023-07-02T07:26:23;156325.06;;;23.64;100.00
51287;BME280;37364;46.974;18.916;2023-07-02T07:28:54;156328.94;;;23.65;100.00
51287;BME280;37364;46.974;18.916;2023-07-02T07:31:25;156429.53;;;24.05;100.00
51287;BME280;37364;46.974;18.916;2023-07-02T07:33:55;156573.28;;;24.61;100.00
51287;BME280;37364;46.974;18.916;2023-07-02T07:36:25;156556.31;;;24.55;100.00
51287;BME280;37364;46.974;18.916;2023-07-02T07:38:58;156578.50;;;24.63;100.00
51287;BME280;37364;46.974;18.916;2023-07-02T07:41:28;156723.50;;;25.20;100.00
51287;BME280;37364;46.974;18.916;2023-07-02T07:43:59;156754.97;;;25.33;100.00
51287;BME280;37364;46.974;18.916;2023-07-02T07:46:29;156730.13;;;25.23;100.00
51287;BME280;37364;46.974;18.916;2023-07-02T07:49:00;156659.53;;;24.95;99.73
51287;BME280;37364;46.974;18.916;2023-07-02T07:51:30;156647.75;;;24.91;100.00
51287;BME280;37364;46.974;18.916;2023-07-02T07:54:05;156594.16;;;24.70;100.00
51287;BME280;37364;46.974;18.916;2023-07-02T07:56:35;156551.09;;;24.53;100.00
51287;BME280;37364;46.974;18.916;2023-07-02T07:59:06;156487.03;;;24.27;100.00
51287;BME280;37364;46.974;18.916;2023-07-02T08:01:38;156514.44;;;24.38;100.00
51287;BME280;37364;46.974;18.916;2023-07-02T08:04:08;156709.13;;;25.15;100.00
51287;BME280;37364;46.974;18.916;2023-07-02T08:06:38;156673.84;;;25.01;100.00
51287;BME280;37364;46.974;18.916;2023-07-02T08:09:14;156807.22;;;25.53;100.00
51287;BME280;37364;46.974;18.916;2023-07-02T08:11:44;156690.88;;;25.08;100.00
51287;BME280;37364;46.974;18.916;2023-07-02T08:14:14;156615.09;;;24.78;98.67
51287;BME280;37364;46.974;18.916;2023-07-02T08:16:44;156684.31;;;25.05;99.96
51287;BME280;37364;46.974;18.916;2023-07-02T08:19:15;156717.00;;;25.18;98.67
51287;BME280;37364;46.974;18.916;2023-07-02T08:21:45;156629.44;;;24.83;97.59
51287;BME280;37364;46.974;18.916;2023-07-02T08:24:17;156758.84;;;25.34;97.69
51287;BME280;37364;46.974;18.916;2023-07-02T08:26:48;156824.19;;;25.60;99.86
51287;BME280;37364;46.974;18.916;2023-07-02T08:29:18;156802.00;;;25.51;99.51
51287;BME280;37364;46.974;18.916;2023-07-02T08:31:48;156885.66;;;25.84;97.77
51287;BME280;37364;46.974;18.916;2023-07-02T08:34:18;156768.00;;;25.38;97.51
51287;BME280;37364;46.974;18.916;2023-07-02T08:36:48;156815.09;;;25.56;100.00
51287;BME280;37364;46.974;18.916;2023-07-02T08:39:21;156839.91;;;25.66;100.00
51287;BME280;37364;46.974;18.916;2023-07-02T08:41:51;156829.47;;;25.62;99.12
51287;BME280;37364;46.974;18.916;2023-07-02T08:44:22;156753.63;;;25.32;98.08
51287;BME280;37364;46.974;18.916;2023-07-02T08:46:52;156812.44;;;25.55;98.34
51287;BME280;37364;46.974;18.916;2023-07-02T08:49:24;156694.81;;;25.09;100.00
51287;BME280;37364;46.974;18.916;2023-07-02T08:51:54;156739.25;;;25.26;100.00
51287;BME280;37364;46.974;18.916;2023-07-02T08:54:27;156743.16;;;25.28;100.00
51287;BME280;37364;46.974;18.916;2023-07-02T08:56:57;156807.22;;;25.53;99.63
51287;BME280;37364;46.974;18.916;2023-07-02T08:59:32;156771.94;;;25.39;98.20
51287;BME280;37364;46.974;18.916;2023-07-02T09:02:02;156936.69;;;26.04;92.26
51287;BME280;37364;46.974;18.916;2023-07-02T09:04:32;156990.31;;;26.25;93.33
51287;BME280;37364;46.974;18.916;2023-07-02T09:07:04;157075.34;;;26.58;89.82
51287;BME280;37364;46.974;18.916;2023-07-02T09:09:47;157164.28;;;26.93;88.53
51287;BME280;37364;46.974;18.916;2023-07-02T09:12:25;157105.44;;;26.70;85.40
51287;BME280;37364;46.974;18.916;2023-07-02T09:14:57;157149.91;;;26.88;92.70
51287;BME280;37364;46.974;18.916;2023-07-02T09:17:28;157068.72;;;26.56;83.25
51287;BME280;37364;46.974;18.916;2023-07-02T09:20:00;157049.09;;;26.48;93.14
51287;BME280;37364;46.974;18.916;2023-07-02T09:22:31;157015.16;;;26.35;93.35
51287;BME280;37364;46.974;18.916;2023-07-02T09:25:05;157083.16;;;26.61;95.19
51287;BME280;37364;46.974;18.916;2023-07-02T09:27:37;157068.72;;;26.56;91.59
51287;BME280;37364;46.974;18.916;2023-07-02T09:30:11;156945.84;;;26.08;91.00
51287;BME280;37364;46.974;18.916;2023-07-02T09:32:43;157011.22;;;26.33;92.67
51287;BME280;37364;46.974;18.916;2023-07-02T09:35:14;156968.03;;;26.16;93.37
51287;BME280;37364;46.974;18.916;2023-07-02T09:37:45;156969.41;;;26.17;94.08
51287;BME280;37364;46.974;18.916;2023-07-02T09:40:19;157132.88;;;26.81;94.27
51287;BME280;37364;46.974;18.916;2023-07-02T09:42:52;157199.59;;;27.07;88.80
51287;BME280;37364;46.974;18.916;2023-07-02T09:45:27;157111.94;;;26.73;93.79
51287;BME280;37364;46.974;18.916;2023-07-02T09:47:58;157071.38;;;26.57;97.17
51287;BME280;37364;46.974;18.916;2023-07-02T09:50:29;157144.66;;;26.86;89.55
51287;BME280;37364;46.974;18.916;2023-07-02T09:53:00;157144.66;;;26.86;90.04
51287;BME280;37364;46.974;18.916;2023-07-02T09:55:33;157045.22;;;26.47;89.75
51287;BME280;37364;46.974;18.916;2023-07-02T09:58:03;157097.56;;;26.67;91.72
51287;BME280;37364;46.974;18.916;2023-07-02T10:00:34;157229.69;;;27.19;91.48
51287;BME280;37364;46.974;18.916;2023-07-02T10:03:04;157131.56;;;26.80;89.26
51287;BME280;37364;46.974;18.916;2023-07-02T10:05:35;157190.44;;;27.03;88.27
51287;BME280;37364;46.974;18.916;2023-07-02T10:08:14;157306.91;;;27.49;86.91
51287;BME280;37364;46.974;18.916;2023-07-02T10:10:48;157283.34;;;27.40;82.29
51287;BME280;37364;46.974;18.916;2023-07-02T10:13:26;157302.97;;;27.48;78.90
51287;BME280;37364;46.974;18.916;2023-07-02T10:16:01;157144.66;;;26.86;84.86
51287;BME280;37364;46.974;18.916;2023-07-02T10:18:31;157240.16;;;27.23;80.49
51287;BME280;37364;46.974;18.916;2023-07-02T10:21:13;157448.28;;;28.05;83.80
51287;BME280;37364;46.974;18.916;2023-07-02T10:23:44;157394.59;;;27.84;87.29
51287;BME280;37364;46.974;18.916;2023-07-02T10:26:18;157572.66;;;28.53;84.56
51287;BME280;37364;46.974;18.916;2023-07-02T10:28:57;157507.19;;;28.28;80.97
51287;BME280;37364;46.974;18.916;2023-07-02T10:31:28;157368.38;;;27.73;80.36
51287;BME280;37364;46.974;18.916;2023-07-02T10:33:58;157309.56;;;27.50;82.09
51287;BME280;37364;46.974;18.916;2023-07-02T10:36:31;157521.56;;;28.33;84.94
51287;BME280;37364;46.974;18.916;2023-07-02T10:39:02;157495.41;;;28.23;82.62
51287;BME280;37364;46.974;18.916;2023-07-02T10:41:38;157501.94;;;28.26;84.57
51287;BME280;37364;46.974;18.916;2023-07-02T10:44:09;157500.66;;;28.25;84.98
51287;BME280;37364;46.974;18.916;2023-07-02T10:46:43;157539.91;;;28.40;74.65
51287;BME280;37364;46.974;18.916;2023-07-02T10:49:14;157649.94;;;28.84;79.18
51287;BME280;37364;46.974;18.916;2023-07-02T10:51:44;157445.69;;;28.04;75.73
51287;BME280;37364;46.974;18.916;2023-07-02T10:54:14;157550.38;;;28.45;79.11
51287;BME280;37364;46.974;18.916;2023-07-02T10:56:47;157532.03;;;28.37;79.58
51287;BME280;37364;46.974;18.916;2023-07-02T10:59:23;157576.59;;;28.55;78.66
51287;BME280;37364;46.974;18.916;2023-07-02T11:01:54;157615.88;;;28.70;76.21
51287;BME280;37364;46.974;18.916;2023-07-02T11:04:29;157625.06;;;28.74;75.53
51287;BME280;37364;46.974;18.916;2023-07-02T11:07:00;157448.28;;;28.05;72.97
51287;BME280;37364;46.974;18.916;2023-07-02T11:09:30;157625.06;;;28.74;77.33
51287;BME280;37364;46.974;18.916;2023-07-02T11:12:04;157606.72;;;28.67;72.45
51287;BME280;37364;46.974;18.916;2023-07-02T11:14:36;157646.00;;;28.82;76.68
51287;BME280;37364;46.974;18.916;2023-07-02T11:17:08;157733.75;;;29.16;77.28
51287;BME280;37364;46.974;18.916;2023-07-02T11:19:38;157640.78;;;28.80;73.08
51287;BME280;37364;46.974;18.916;2023-07-02T11:22:09;157443.03;;;28.03;68.01
51287;BME280;37364;46.974;18.916;2023-07-02T11:24:39;157390.66;;;27.82;67.87
51287;BME280;37364;46.974;18.916;2023-07-02T11:27:20;157431.28;;;27.98;68.21
51287;BME280;37364;46.974;18.916;2023-07-02T11:29:59;157403.72;;;27.87;70.40
51287;BME280;37364;46.974;18.916;2023-07-02T11:32:29;157608.03;;;28.67;73.01
51287;BME280;37364;46.974;18.916;2023-07-02T11:34:59;157522.88;;;28.34;68.32
51287;BME280;37364;46.974;18.916;2023-07-02T11:37:29;157556.91;;;28.47;74.33
51287;BME280;37364;46.974;18.916;2023-07-02T11:40:00;157545.16;;;28.43;72.99
51287;BME280;37364;46.974;18.916;2023-07-02T11:42:32;157634.19;;;28.77;75.02
51287;BME280;37364;46.974;18.916;2023-07-02T11:45:04;157445.69;;;28.04;70.89
51287;BME280;37364;46.974;18.916;2023-07-02T11:47:34;157597.53;;;28.63;70.23
51287;BME280;37364;46.974;18.916;2023-07-02T11:50:05;157526.81;;;28.35;70.98
51287;BME280;37364;46.974;18.916;2023-07-02T11:52:51;157521.56;;;28.33;72.66
51287;BME280;37364;46.974;18.916;2023-07-02T11:55:22;157499.34;;;28.25;68.80
51287;BME280;37364;46.974;18.916;2023-07-02T11:57:55;157461.38;;;28.10;67.99
51287;BME280;37364;46.974;18.916;2023-07-02T12:00:25;157445.69;;;28.04;71.77
51287;BME280;37364;46.974;18.916;2023-07-02T12:02:56;157482.31;;;28.18;68.97
51287;BME280;37364;46.974;18.916;2023-07-02T12:05:26;157388.03;;;27.81;71.34
51287;BME280;37364;46.974;18.916;2023-07-02T12:07:56;157367.09;;;27.73;63.94
51287;BME280;37364;46.974;18.916;2023-07-02T12:10:26;157496.72;;;28.24;72.58
51287;BME280;37364;46.974;18.916;2023-07-02T12:12:59;157373.63;;;27.75;71.85
51287;BME280;37364;46.974;18.916;2023-07-02T12:15:30;157490.19;;;28.21;82.86
51287;BME280;37364;46.974;18.916;2023-07-02T12:18:01;157409.00;;;27.89;70.94
51287;BME280;37364;46.974;18.916;2023-07-02T12:20:32;157466.59;;;28.12;74.33
51287;BME280;37364;46.974;18.916;2023-07-02T12:23:02;157391.97;;;27.83;75.10
51287;BME280;37364;46.974;18.916;2023-07-02T12:25:32;157509.81;;;28.29;78.01
51287;BME280;37364;46.974;18.916;2023-07-02T12:28:05;157698.34;;;29.03;80.74
51287;BME280;37364;46.974;18.916;2023-07-02T12:30:39;157690.53;;;28.99;74.82
51287;BME280;37364;46.974;18.916;2023-07-02T12:33:10;157589.72;;;28.60;66.63
51287;BME280;37364;46.974;18.916;2023-07-02T12:35:40;157680.06;;;28.95;74.65
51287;BME280;37364;46.974;18.916;2023-07-02T12:38:10;157655.19;;;28.86;70.63
51287;BME280;37364;46.974;18.916;2023-07-02T12:40:41;157562.16;;;28.49;70.05
51287;BME280;37364;46.974;18.916;2023-07-02T12:43:13;157663.00;;;28.89;71.93
51287;BME280;37364;46.974;18.916;2023-07-02T12:45:44;157639.47;;;28.79;66.25
51287;BME280;37364;46.974;18.916;2023-07-02T12:48:14;157592.31;;;28.61;66.35
51287;BME280;37364;46.974;18.916;2023-07-02T12:50:53;157674.81;;;28.93;69.44
51287;BME280;37364;46.974;18.916;2023-07-02T12:53:25;157357.94;;;27.69;73.48